sensor_id;sensor_type;location;lat;lon;timestamp;temperature;humidity
29729;DHT22;20055;51.498;11.960;2022-10-30T00:00:52;14.80;99.90
29729;DHT22;20055;51.498;11.960;2022-10-30T00:03:19;14.60;99.90
29729;DHT22;20055;51.498;11.960;2022-10-30T00:05:47;14.30;99.90
29729;DHT22;20055;51.498;11.960;2022-10-30T00:08:15;14.80;99.90
29729;DHT22;20055;51.498;11.960;2022-10-30T00:10:42;14.60;99.90
29729;DHT22;20055;51.498;11.960;2022-10-30T00:13:09;14.20;99.90
29729;DHT22;20055;51.498;11.960;2022-10-30T00:15:35;14.60;99.90
29729;DHT22;20055;51.498;11.960;2022-10-30T00:18:02;14.40;99.90
29729;DHT22;20055;51.498;11.960;2022-10-30T00:20:28;14.60;99.90
29729;DHT22;20055;51.498;11.960;2022-10-30T00:22:54;14.70;99.90
29729;DHT22;20055;51.498;11.960;2022-10-30T00:25:21;14.40;99.90
29729;DHT22;20055;51.498;11.960;2022-10-30T00:27:47;14.30;99.90
29729;DHT22;20055;51.498;11.960;2022-10-30T00:30:13;14.50;99.90
29729;DHT22;20055;51.498;11.960;2022-10-30T00:32:41;14.20;99.90
29729;DHT22;20055;51.498;11.960;2022-10-30T00:35:09;14.20;99.90
29729;DHT22;20055;51.498;11.960;2022-10-30T00:37:35;14.40;99.90
29729;DHT22;20055;51.498;11.960;2022-10-30T00:40:02;13.90;99.90
29729;DHT22;20055;51.498;11.960;2022-10-30T00:42:30;13.90;99.90
29729;DHT22;20055;51.498;11.960;2022-10-30T00:44:56;14.00;99.90
29729;DHT22;20055;51.498;11.960;2022-10-30T00:52:53;14.00;99.90
29729;DHT22;20055;51.498;11.960;2022-10-30T00:55:26;14.10;99.90
29729;DHT22;20055;51.498;11.960;2022-10-30T00:57:56;13.80;99.90
29729;DHT22;20055;51.498;11.960;2022-10-30T01:00:23;13.80;99.90
29729;DHT22;20055;51.498;11.960;2022-10-30T01:02:51;14.00;99.90
29729;DHT22;20055;51.498;11.960;2022-10-30T01:05:21;14.10;99.90
29729;DHT22;20055;51.498;11.960;2022-10-30T01:07:50;14.00;99.90
29729;DHT22;20055;51.498;11.960;2022-10-30T01:10:17;14.20;99.90
29729;DHT22;20055;51.498;11.960;2022-10-30T01:12:45;14.30;99.90
29729;DHT22;20055;51.498;11.960;2022-10-30T01:15:14;13.50;99.90
29729;DHT22;20055;51.498;11.960;2022-10-30T01:23:41;13.80;99.90
29729;DHT22;20055;51.498;11.960;2022-10-30T01:29:39;14.20;99.90
29729;DHT22;20055;51.498;11.960;2022-10-30T01:35:13;14.20;99.90
29729;DHT22;20055;51.498;11.960;2022-10-30T01:38:02;14.40;99.90
29729;DHT22;20055;51.498;11.960;2022-10-30T01:40:32;14.40;99.90
29729;DHT22;20055;51.498;11.960;2022-10-30T01:42:59;14.60;99.90
29729;DHT22;20055;51.498;11.960;2022-10-30T01:56:43;14.20;99.90
29729;DHT22;20055;51.498;11.960;2022-10-30T02:02:06;14.50;99.90
29729;DHT22;20055;51.498;11.960;2022-10-30T02:04:32;14.60;99.90
29729;DHT22;20055;51.498;11.960;2022-10-30T02:06:59;14.20;99.90
29729;DHT22;20055;51.498;11.960;2022-10-30T02:09:26;14.40;99.90
29729;DHT22;20055;51.498;11.960;2022-10-30T02:11:52;14.60;99.90
29729;DHT22;20055;51.498;11.960;2022-10-30T02:14:46;14.50;99.90
29729;DHT22;20055;51.498;11.960;2022-10-30T02:17:14;14.40;99.90
29729;DHT22;20055;51.498;11.960;2022-10-30T02:19:41;15.00;99.90
29729;DHT22;20055;51.498;11.960;2022-10-30T02:22:08;14.20;99.90
29729;DHT22;20055;51.498;11.960;2022-10-30T02:24:34;14.50;99.90
29729;DHT22;20055;51.498;11.960;2022-10-30T02:27:00;14.00;99.90
29729;DHT22;20055;51.498;11.960;2022-10-30T02:29:27;14.20;99.90
29729;DHT22;20055;51.498;11.960;2022-10-30T02:31:53;14.60;99.90
29729;DHT22;20055;51.498;11.960;2022-10-30T02:34:20;14.10;99.90
29729;DHT22;20055;51.498;11.960;2022-10-30T02:36:46;14.10;99.90
29729;DHT22;20055;51.498;11.960;2022-10-30T02:39:12;13.70;99.90
29729;DHT22;20055;51.498;11.960;2022-10-30T02:41:39;14.10;99.90
29729;DHT22;20055;51.498;11.960;2022-10-30T02:44:05;14.10;99.90
29729;DHT22;20055;51.498;11.960;2022-10-30T02:46:33;13.90;99.90
29729;DHT22;20055;51.498;11.960;2022-10-30T02:48:59;14.40;99.90
29729;DHT22;20055;51.498;11.960;2022-10-30T02:51:27;14.30;99.90
29729;DHT22;20055;51.498;11.960;2022-10-30T02:53:53;14.20;99.90
29729;DHT22;20055;51.498;11.960;2022-10-30T02:56:19;14.10;99.90
29729;DHT22;20055;51.498;11.960;2022-10-30T02:58:46;14.20;99.90
29729;DHT22;20055;51.498;11.960;2022-10-30T03:01:18;14.10;99.90
29729;DHT22;20055;51.498;11.960;2022-10-30T03:03:45;14.00;99.90
29729;DHT22;20055;51.498;11.960;2022-10-30T03:06:14;14.20;99.90
29729;DHT22;20055;51.498;11.960;2022-10-30T03:08:41;14.10;99.90
29729;DHT22;20055;51.498;11.960;2022-10-30T03:11:10;13.60;99.90
29729;DHT22;20055;51.498;11.960;2022-10-30T03:13:37;14.10;99.90
29729;DHT22;20055;51.498;11.960;2022-10-30T03:16:14;14.20;99.90
29729;DHT22;20055;51.498;11.960;2022-10-30T03:18:41;13.60;99.90
29729;DHT22;20055;51.498;11.960;2022-10-30T03:21:16;14.00;99.90
29729;DHT22;20055;51.498;11.960;2022-10-30T03:23:44;13.90;99.90
29729;DHT22;20055;51.498;11.960;2022-10-30T03:26:11;13.90;99.90
29729;DHT22;20055;51.498;11.960;2022-10-30T03:29:10;13.40;99.90
29729;DHT22;20055;51.498;11.960;2022-10-30T03:31:36;14.10;99.90
29729;DHT22;20055;51.498;11.960;2022-10-30T03:34:18;14.40;99.90
29729;DHT22;20055;51.498;11.960;2022-10-30T03:36:44;13.50;99.90
29729;DHT22;20055;51.498;11.960;2022-10-30T03:39:11;14.20;99.90
29729;DHT22;20055;51.498;11.960;2022-10-30T03:41:38;14.00;99.90
29729;DHT22;20055;51.498;11.960;2022-10-30T03:44:04;13.80;99.90
29729;DHT22;20055;51.498;11.960;2022-10-30T03:46:31;14.30;99.90
29729;DHT22;20055;51.498;11.960;2022-10-30T03:49:09;14.00;99.90
29729;DHT22;20055;51.498;11.960;2022-10-30T03:51:35;13.70;99.90
29729;DHT22;20055;51.498;11.960;2022-10-30T03:54:01;13.90;99.90
29729;DHT22;20055;51.498;11.960;2022-10-30T03:56:28;14.10;99.90
29729;DHT22;20055;51.498;11.960;2022-10-30T03:58:58;14.20;99.90
29729;DHT22;20055;51.498;11.960;2022-10-30T04:01:24;14.00;99.90
29729;DHT22;20055;51.498;11.960;2022-10-30T04:03:55;14.00;99.90
29729;DHT22;20055;51.498;11.960;2022-10-30T04:06:23;13.90;99.90
29729;DHT22;20055;51.498;11.960;2022-10-30T04:08:49;14.00;99.90
29729;DHT22;20055;51.498;11.960;2022-10-30T04:11:16;14.10;99.90
29729;DHT22;20055;51.498;11.960;2022-10-30T04:13:43;14.60;99.90
29729;DHT22;20055;51.498;11.960;2022-10-30T04:16:10;14.10;99.90
29729;DHT22;20055;51.498;11.960;2022-10-30T04:18:36;13.90;99.90
29729;DHT22;20055;51.498;11.960;2022-10-30T04:21:03;14.10;99.90
29729;DHT22;20055;51.498;11.960;2022-10-30T04:23:30;13.90;99.90
29729;DHT22;20055;51.498;11.960;2022-10-30T04:25:59;14.10;99.90
29729;DHT22;20055;51.498;11.960;2022-10-30T04:28:26;14.00;99.90
29729;DHT22;20055;51.498;11.960;2022-10-30T04:30:52;13.80;99.90
29729;DHT22;20055;51.498;11.960;2022-10-30T04:33:19;14.30;99.90
29729;DHT22;20055;51.498;11.960;2022-10-30T04:35:45;14.10;99.90
29729;DHT22;20055;51.498;11.960;2022-10-30T04:38:15;14.10;99.90
29729;DHT22;20055;51.498;11.960;2022-10-30T04:40:44;14.20;99.90
29729;DHT22;20055;51.498;11.960;2022-10-30T04:43:12;14.20;99.90
29729;DHT22;20055;51.498;11.960;2022-10-30T04:45:39;13.90;99.90
29729;DHT22;20055;51.498;11.960;2022-10-30T04:48:10;14.00;99.90
29729;DHT22;20055;51.498;11.960;2022-10-30T04:50:36;14.10;99.90
29729;DHT22;20055;51.498;11.960;2022-10-30T04:53:14;14.20;99.90
29729;DHT22;20055;51.498;11.960;2022-10-30T04:55:41;14.00;99.90
29729;DHT22;20055;51.498;11.960;2022-10-30T04:58:11;14.10;99.90
29729;DHT22;20055;51.498;11.960;2022-10-30T05:00:39;13.90;99.90
29729;DHT22;20055;51.498;11.960;2022-10-30T05:03:18;14.00;99.90
29729;DHT22;20055;51.498;11.960;2022-10-30T05:05:46;13.60;99.90
29729;DHT22;20055;51.498;11.960;2022-10-30T05:08:12;14.10;99.90
29729;DHT22;20055;51.498;11.960;2022-10-30T05:10:39;13.80;99.90
29729;DHT22;20055;51.498;11.960;2022-10-30T05:13:05;14.20;99.90
29729;DHT22;20055;51.498;11.960;2022-10-30T05:15:32;14.00;99.90
29729;DHT22;20055;51.498;11.960;2022-10-30T05:17:58;14.40;99.90
29729;DHT22;20055;51.498;11.960;2022-10-30T05:20:24;13.70;99.90
29729;DHT22;20055;51.498;11.960;2022-10-30T05:22:54;13.80;99.90
29729;DHT22;20055;51.498;11.960;2022-10-30T05:25:22;13.70;99.90
29729;DHT22;20055;51.498;11.960;2022-10-30T05:27:50;14.10;99.90
29729;DHT22;20055;51.498;11.960;2022-10-30T05:30:18;14.20;99.90
29729;DHT22;20055;51.498;11.960;2022-10-30T05:32:44;14.20;99.90
29729;DHT22;20055;51.498;11.960;2022-10-30T05:35:11;13.90;99.90
29729;DHT22;20055;51.498;11.960;2022-10-30T05:37:37;14.20;99.90
29729;DHT22;20055;51.498;11.960;2022-10-30T05:40:04;14.60;99.90
29729;DHT22;20055;51.498;11.960;2022-10-30T05:42:31;13.90;99.90
29729;DHT22;20055;51.498;11.960;2022-10-30T05:45:01;11.50;99.90
29729;DHT22;20055;51.498;11.960;2022-10-30T05:47:29;13.90;99.90
29729;DHT22;20055;51.498;11.960;2022-10-30T05:49:56;14.30;99.90
29729;DHT22;20055;51.498;11.960;2022-10-30T05:52:25;14.40;99.90
29729;DHT22;20055;51.498;11.960;2022-10-30T05:54:51;14.10;99.90
29729;DHT22;20055;51.498;11.960;2022-10-30T05:57:29;14.40;99.90
29729;DHT22;20055;51.498;11.960;2022-10-30T05:59:55;14.10;99.90
29729;DHT22;20055;51.498;11.960;2022-10-30T06:02:21;14.10;99.90
29729;DHT22;20055;51.498;11.960;2022-10-30T06:04:48;13.80;99.90
29729;DHT22;20055;51.498;11.960;2022-10-30T06:07:14;14.20;99.90
29729;DHT22;20055;51.498;11.960;2022-10-30T06:09:40;14.20;99.90
29729;DHT22;20055;51.498;11.960;2022-10-30T06:12:35;13.50;99.90
29729;DHT22;20055;51.498;11.960;2022-10-30T06:15:09;14.00;99.90
29729;DHT22;20055;51.498;11.960;2022-10-30T06:17:36;13.80;99.90
29729;DHT22;20055;51.498;11.960;2022-10-30T06:20:22;13.90;99.90
29729;DHT22;20055;51.498;11.960;2022-10-30T06:23:08;13.90;99.90
29729;DHT22;20055;51.498;11.960;2022-10-30T06:25:58;14.20;99.90
29729;DHT22;20055;51.498;11.960;2022-10-30T06:28:34;14.70;99.90
29729;DHT22;20055;51.498;11.960;2022-10-30T06:31:00;14.60;99.90
29729;DHT22;20055;51.498;11.960;2022-10-30T06:33:27;14.30;99.90
29729;DHT22;20055;51.498;11.960;2022-10-30T06:35:54;14.80;99.90
29729;DHT22;20055;51.498;11.960;2022-10-30T06:38:21;14.40;99.90
29729;DHT22;20055;51.498;11.960;2022-10-30T06:40:49;14.50;99.90
29729;DHT22;20055;51.498;11.960;2022-10-30T06:43:18;14.60;99.90
29729;DHT22;20055;51.498;11.960;2022-10-30T06:45:57;14.80;99.90
29729;DHT22;20055;51.498;11.960;2022-10-30T06:48:23;14.80;99.90
29729;DHT22;20055;51.498;11.960;2022-10-30T06:50:57;14.70;99.90
29729;DHT22;20055;51.498;11.960;2022-10-30T06:53:25;14.60;99.90
29729;DHT22;20055;51.498;11.960;2022-10-30T06:55:55;14.80;99.90
29729;DHT22;20055;51.498;11.960;2022-10-30T06:58:39;15.00;99.90
29729;DHT22;20055;51.498;11.960;2022-10-30T07:01:12;15.20;99.90
29729;DHT22;20055;51.498;11.960;2022-10-30T07:04:01;14.40;99.90
29729;DHT22;20055;51.498;11.960;2022-10-30T07:06:28;15.10;99.90
29729;DHT22;20055;51.498;11.960;2022-10-30T07:08:54;14.80;99.90
29729;DHT22;20055;51.498;11.960;2022-10-30T07:11:21;15.30;99.90
29729;DHT22;20055;51.498;11.960;2022-10-30T07:14:13;15.20;99.90
29729;DHT22;20055;51.498;11.960;2022-10-30T07:16:48;15.10;99.90
29729;DHT22;20055;51.498;11.960;2022-10-30T07:19:15;15.20;99.90
29729;DHT22;20055;51.498;11.960;2022-10-30T07:21:41;15.10;99.90
29729;DHT22;20055;51.498;11.960;2022-10-30T07:24:08;14.60;99.90
29729;DHT22;20055;51.498;11.960;2022-10-30T07:26:42;14.80;99.90
29729;DHT22;20055;51.498;11.960;2022-10-30T07:29:29;15.20;99.90
29729;DHT22;20055;51.498;11.960;2022-10-30T07:32:19;15.10;99.90
29729;DHT22;20055;51.498;11.960;2022-10-30T07:35:05;15.10;99.90
29729;DHT22;20055;51.498;11.960;2022-10-30T07:37:41;15.10;99.90
29729;DHT22;20055;51.498;11.960;2022-10-30T07:40:11;14.30;99.90
29729;DHT22;20055;51.498;11.960;2022-10-30T07:42:44;14.70;99.90
29729;DHT22;20055;51.498;11.960;2022-10-30T07:45:30;15.50;99.90
29729;DHT22;20055;51.498;11.960;2022-10-30T07:48:16;15.20;99.90
29729;DHT22;20055;51.498;11.960;2022-10-30T07:51:06;14.90;99.90
29729;DHT22;20055;51.498;11.960;2022-10-30T07:53:32;15.20;99.90
29729;DHT22;20055;51.498;11.960;2022-10-30T07:55:59;14.80;99.90
29729;DHT22;20055;51.498;11.960;2022-10-30T07:58:43;15.50;99.90
29729;DHT22;20055;51.498;11.960;2022-10-30T08:01:33;15.00;99.90
29729;DHT22;20055;51.498;11.960;2022-10-30T08:04:14;15.00;99.90
29729;DHT22;20055;51.498;11.960;2022-10-30T08:06:41;15.90;99.90
29729;DHT22;20055;51.498;11.960;2022-10-30T08:09:08;15.60;99.90
29729;DHT22;20055;51.498;11.960;2022-10-30T08:11:35;15.30;99.90
29729;DHT22;20055;51.498;11.960;2022-10-30T08:14:03;15.60;99.90
29729;DHT22;20055;51.498;11.960;2022-10-30T08:16:29;15.90;99.90
29729;DHT22;20055;51.498;11.960;2022-10-30T08:18:56;16.10;99.90
29729;DHT22;20055;51.498;11.960;2022-10-30T08:21:24;15.90;99.90
29729;DHT22;20055;51.498;11.960;2022-10-30T08:24:07;15.60;99.90
29729;DHT22;20055;51.498;11.960;2022-10-30T08:26:34;16.20;99.90
29729;DHT22;20055;51.498;11.960;2022-10-30T08:29:00;15.90;99.90
29729;DHT22;20055;51.498;11.960;2022-10-30T08:31:29;16.10;99.90
29729;DHT22;20055;51.498;11.960;2022-10-30T08:34:02;16.00;99.90
29729;DHT22;20055;51.498;11.960;2022-10-30T08:36:46;16.20;99.90
29729;DHT22;20055;51.498;11.960;2022-10-30T08:39:13;16.20;99.90
29729;DHT22;20055;51.498;11.960;2022-10-30T08:41:56;16.60;99.90
29729;DHT22;20055;51.498;11.960;2022-10-30T08:44:23;16.80;99.90
29729;DHT22;20055;51.498;11.960;2022-10-30T08:47:08;15.90;99.90
29729;DHT22;20055;51.498;11.960;2022-10-30T08:49:35;16.60;99.90
29729;DHT22;20055;51.498;11.960;2022-10-30T08:52:02;16.90;99.90
29729;DHT22;20055;51.498;11.960;2022-10-30T08:54:28;16.30;99.90
29729;DHT22;20055;51.498;11.960;2022-10-30T08:56:58;17.00;99.90
29729;DHT22;20055;51.498;11.960;2022-10-30T08:59:25;17.10;99.90
29729;DHT22;20055;51.498;11.960;2022-10-30T09:01:54;16.80;99.90
29729;DHT22;20055;51.498;11.960;2022-10-30T09:04:20;16.30;99.90
29729;DHT22;20055;51.498;11.960;2022-10-30T09:07:25;17.00;99.90
29729;DHT22;20055;51.498;11.960;2022-10-30T09:10:15;17.50;99.90
29729;DHT22;20055;51.498;11.960;2022-10-30T09:12:42;17.30;99.90
29729;DHT22;20055;51.498;11.960;2022-10-30T09:15:08;17.80;99.90
29729;DHT22;20055;51.498;11.960;2022-10-30T09:17:45;17.30;99.90
29729;DHT22;20055;51.498;11.960;2022-10-30T09:20:12;17.40;99.90
29729;DHT22;20055;51.498;11.960;2022-10-30T09:22:41;18.00;99.90
29729;DHT22;20055;51.498;11.960;2022-10-30T09:25:08;18.20;99.90
29729;DHT22;20055;51.498;11.960;2022-10-30T09:27:57;18.20;99.90
29729;DHT22;20055;51.498;11.960;2022-10-30T09:30:27;18.70;99.90
29729;DHT22;20055;51.498;11.960;2022-10-30T09:32:59;18.90;99.90
29729;DHT22;20055;51.498;11.960;2022-10-30T09:35:53;18.60;99.90
29729;DHT22;20055;51.498;11.960;2022-10-30T09:38:19;18.90;99.90
29729;DHT22;20055;51.498;11.960;2022-10-30T09:43:33;19.80;99.90
29729;DHT22;20055;51.498;11.960;2022-10-30T09:46:04;18.70;99.90
29729;DHT22;20055;51.498;11.960;2022-10-30T09:56:48;19.60;99.90
29729;DHT22;20055;51.498;11.960;2022-10-30T10:02:26;19.50;99.90
29729;DHT22;20055;51.498;11.960;2022-10-30T10:05:45;19.50;99.90
29729;DHT22;20055;51.498;11.960;2022-10-30T10:08:15;19.50;99.90
29729;DHT22;20055;51.498;11.960;2022-10-30T10:10:58;19.80;99.90
29729;DHT22;20055;51.498;11.960;2022-10-30T10:16:14;19.80;99.90
29729;DHT22;20055;51.498;11.960;2022-10-30T10:18:57;20.00;99.90
29729;DHT22;20055;51.498;11.960;2022-10-30T10:21:27;20.10;99.90
29729;DHT22;20055;51.498;11.960;2022-10-30T10:23:56;19.90;99.90
29729;DHT22;20055;51.498;11.960;2022-10-30T10:26:41;20.80;99.90
29729;DHT22;20055;51.498;11.960;2022-10-30T10:29:32;20.20;99.90
29729;DHT22;20055;51.498;11.960;2022-10-30T10:34:54;20.60;99.90
29729;DHT22;20055;51.498;11.960;2022-10-30T10:40:21;20.50;99.90
29729;DHT22;20055;51.498;11.960;2022-10-30T10:42:57;20.70;99.90
29729;DHT22;20055;51.498;11.960;2022-10-30T10:48:16;21.40;99.90
29729;DHT22;20055;51.498;11.960;2022-10-30T10:50:55;20.70;99.90
29729;DHT22;20055;51.498;11.960;2022-10-30T10:56:06;21.00;99.90
29729;DHT22;20055;51.498;11.960;2022-10-30T11:01:11;21.20;99.90
29729;DHT22;20055;51.498;11.960;2022-10-30T11:03:45;21.10;99.90
29729;DHT22;20055;51.498;11.960;2022-10-30T11:06:20;21.20;99.90
29729;DHT22;20055;51.498;11.960;2022-10-30T11:08:48;21.40;99.90
29729;DHT22;20055;51.498;11.960;2022-10-30T11:11:17;21.30;99.90
29729;DHT22;20055;51.498;11.960;2022-10-30T11:13:43;21.30;99.90
29729;DHT22;20055;51.498;11.960;2022-10-30T11:19:00;21.50;99.90
29729;DHT22;20055;51.498;11.960;2022-10-30T11:21:30;21.50;99.90
29729;DHT22;20055;51.498;11.960;2022-10-30T11:23:58;21.30;99.90
29729;DHT22;20055;51.498;11.960;2022-10-30T11:26:27;21.70;99.90
29729;DHT22;20055;51.498;11.960;2022-10-30T11:29:12;22.80;99.90
29729;DHT22;20055;51.498;11.960;2022-10-30T11:31:41;21.40;99.90
29729;DHT22;20055;51.498;11.960;2022-10-30T11:36:47;21.70;99.90
29729;DHT22;20055;51.498;11.960;2022-10-30T11:39:28;22.00;99.90
29729;DHT22;20055;51.498;11.960;2022-10-30T11:44:47;21.20;99.90
29729;DHT22;20055;51.498;11.960;2022-10-30T11:47:16;22.00;99.90
29729;DHT22;20055;51.498;11.960;2022-10-30T11:49:52;22.00;99.90
29729;DHT22;20055;51.498;11.960;2022-10-30T11:52:22;21.80;99.90
29729;DHT22;20055;51.498;11.960;2022-10-30T11:54:52;21.80;99.90
29729;DHT22;20055;51.498;11.960;2022-10-30T12:00:02;22.10;99.90
29729;DHT22;20055;51.498;11.960;2022-10-30T12:02:43;22.20;99.90
29729;DHT22;20055;51.498;11.960;2022-10-30T12:07:52;21.90;99.90
29729;DHT22;20055;51.498;11.960;2022-10-30T12:10:25;22.20;99.90
29729;DHT22;20055;51.498;11.960;2022-10-30T12:12:52;22.80;99.90
29729;DHT22;20055;51.498;11.960;2022-10-30T12:15:20;22.20;99.90
29729;DHT22;20055;51.498;11.960;2022-10-30T12:18:00;22.10;99.90
29729;DHT22;20055;51.498;11.960;2022-10-30T12:20:27;21.90;99.90
29729;DHT22;20055;51.498;11.960;2022-10-30T12:22:54;22.30;99.90
29729;DHT22;20055;51.498;11.960;2022-10-30T12:25:22;22.20;99.90
29729;DHT22;20055;51.498;11.960;2022-10-30T12:27:50;22.30;99.90
29729;DHT22;20055;51.498;11.960;2022-10-30T12:30:23;22.50;99.90
29729;DHT22;20055;51.498;11.960;2022-10-30T12:33:02;22.20;99.90
29729;DHT22;20055;51.498;11.960;2022-10-30T12:35:39;22.30;99.90
29729;DHT22;20055;51.498;11.960;2022-10-30T12:41:24;22.40;99.90
29729;DHT22;20055;51.498;11.960;2022-10-30T12:43:58;22.60;99.90
29729;DHT22;20055;51.498;11.960;2022-10-30T12:46:42;22.10;99.90
29729;DHT22;20055;51.498;11.960;2022-10-30T12:49:18;22.90;99.90
29729;DHT22;20055;51.498;11.960;2022-10-30T12:54:49;22.50;99.90
29729;DHT22;20055;51.498;11.960;2022-10-30T12:57:20;22.10;99.90
29729;DHT22;20055;51.498;11.960;2022-10-30T12:59:56;22.60;99.90
29729;DHT22;20055;51.498;11.960;2022-10-30T13:04:56;22.60;99.90
29729;DHT22;20055;51.498;11.960;2022-10-30T13:07:37;22.50;99.90
29729;DHT22;20055;51.498;11.960;2022-10-30T13:10:24;22.60;99.90
29729;DHT22;20055;51.498;11.960;2022-10-30T13:12:56;22.60;99.90
29729;DHT22;20055;51.498;11.960;2022-10-30T13:15:29;22.60;99.90
29729;DHT22;20055;51.498;11.960;2022-10-30T13:17:59;22.50;99.90
29729;DHT22;20055;51.498;11.960;2022-10-30T13:20:32;22.60;99.90
29729;DHT22;20055;51.498;11.960;2022-10-30T13:23:04;22.50;99.90
29729;DHT22;20055;51.498;11.960;2022-10-30T13:25:45;22.60;99.90
29729;DHT22;20055;51.498;11.960;2022-10-30T13:28:25;22.50;99.90
29729;DHT22;20055;51.498;11.960;2022-10-30T13:31:30;22.50;99.90
29729;DHT22;20055;51.498;11.960;2022-10-30T13:34:18;22.60;99.90
29729;DHT22;20055;51.498;11.960;2022-10-30T13:37:00;22.60;99.90
29729;DHT22;20055;51.498;11.960;2022-10-30T13:39:45;22.40;99.90
29729;DHT22;20055;51.498;11.960;2022-10-30T13:42:42;22.70;99.90
29729;DHT22;20055;51.498;11.960;2022-10-30T13:51:11;22.60;99.90
29729;DHT22;20055;51.498;11.960;2022-10-30T13:53:43;22.40;99.90
29729;DHT22;20055;51.498;11.960;2022-10-30T13:56:15;22.40;99.90
29729;DHT22;20055;51.498;11.960;2022-10-30T13:58:51;22.40;99.90
29729;DHT22;20055;51.498;11.960;2022-10-30T14:09:51;22.00;99.90
29729;DHT22;20055;51.498;11.960;2022-10-30T14:12:51;22.10;99.90
29729;DHT22;20055;51.498;11.960;2022-10-30T14:20:38;21.80;99.90
29729;DHT22;20055;51.498;11.960;2022-10-30T14:25:38;21.60;99.90
29729;DHT22;20055;51.498;11.960;2022-10-30T14:28:07;21.50;99.90
29729;DHT22;20055;51.498;11.960;2022-10-30T14:30:43;21.40;99.90
29729;DHT22;20055;51.498;11.960;2022-10-30T14:33:32;21.30;99.90
29729;DHT22;20055;51.498;11.960;2022-10-30T14:47:49;21.00;99.90
29729;DHT22;20055;51.498;11.960;2022-10-30T15:06:11;21.20;99.90
29729;DHT22;20055;51.498;11.960;2022-10-30T15:16:53;21.00;99.90
29729;DHT22;20055;51.498;11.960;2022-10-30T15:19:21;20.80;99.90
29729;DHT22;20055;51.498;11.960;2022-10-30T15:21:53;20.70;99.90
29729;DHT22;20055;51.498;11.960;2022-10-30T15:24:22;20.80;99.90
29729;DHT22;20055;51.498;11.960;2022-10-30T15:26:55;20.60;99.90
29729;DHT22;20055;51.498;11.960;2022-10-30T15:29:28;20.30;99.90
29729;DHT22;20055;51.498;11.960;2022-10-30T15:31:57;20.20;99.90
29729;DHT22;20055;51.498;11.960;2022-10-30T15:34:26;20.40;99.90
29729;DHT22;20055;51.498;11.960;2022-10-30T15:36:52;20.30;99.90
29729;DHT22;20055;51.498;11.960;2022-10-30T15:39:18;19.40;99.90
29729;DHT22;20055;51.498;11.960;2022-10-30T15:44:25;19.90;99.90
29729;DHT22;20055;51.498;11.960;2022-10-30T15:46:54;19.40;99.90
29729;DHT22;20055;51.498;11.960;2022-10-30T15:49:28;19.40;99.90
29729;DHT22;20055;51.498;11.960;2022-10-30T15:51:55;19.10;99.90
29729;DHT22;20055;51.498;11.960;2022-10-30T15:54:22;19.00;99.90
29729;DHT22;20055;51.498;11.960;2022-10-30T15:56:54;19.30;99.90
29729;DHT22;20055;51.498;11.960;2022-10-30T15:59:23;19.30;99.90
29729;DHT22;20055;51.498;11.960;2022-10-30T16:01:53;18.90;99.90
29729;DHT22;20055;51.498;11.960;2022-10-30T16:04:32;19.30;99.90
29729;DHT22;20055;51.498;11.960;2022-10-30T16:07:02;19.00;99.90
29729;DHT22;20055;51.498;11.960;2022-10-30T16:12:22;18.90;99.90
29729;DHT22;20055;51.498;11.960;2022-10-30T16:14:49;18.70;99.90
29729;DHT22;20055;51.498;11.960;2022-10-30T16:17:17;19.20;99.90
29729;DHT22;20055;51.498;11.960;2022-10-30T16:19:45;18.50;99.90
29729;DHT22;20055;51.498;11.960;2022-10-30T16:22:15;18.60;99.90
29729;DHT22;20055;51.498;11.960;2022-10-30T16:24:44;18.90;99.90
29729;DHT22;20055;51.498;11.960;2022-10-30T16:27:16;18.60;99.90
29729;DHT22;20055;51.498;11.960;2022-10-30T16:30:07;18.50;99.90
29729;DHT22;20055;51.498;11.960;2022-10-30T16:32:33;18.80;99.90
29729;DHT22;20055;51.498;11.960;2022-10-30T16:35:00;18.20;99.90
29729;DHT22;20055;51.498;11.960;2022-10-30T16:37:38;18.10;99.90
29729;DHT22;20055;51.498;11.960;2022-10-30T16:42:37;18.20;99.90
29729;DHT22;20055;51.498;11.960;2022-10-30T16:47:49;18.00;99.90
29729;DHT22;20055;51.498;11.960;2022-10-30T16:50:16;17.80;99.90
29729;DHT22;20055;51.498;11.960;2022-10-30T16:52:44;17.60;99.90
29729;DHT22;20055;51.498;11.960;2022-10-30T16:55:21;18.00;99.90
29729;DHT22;20055;51.498;11.960;2022-10-30T16:57:54;17.60;99.90
29729;DHT22;20055;51.498;11.960;2022-10-30T17:00:23;17.80;99.90
29729;DHT22;20055;51.498;11.960;2022-10-30T17:02:51;17.90;99.90
29729;DHT22;20055;51.498;11.960;2022-10-30T17:05:25;17.90;99.90
29729;DHT22;20055;51.498;11.960;2022-10-30T17:10:35;17.80;99.90
29729;DHT22;20055;51.498;11.960;2022-10-30T17:13:37;17.70;99.90
29729;DHT22;20055;51.498;11.960;2022-10-30T17:16:31;17.50;99.90
29729;DHT22;20055;51.498;11.960;2022-10-30T17:21:58;17.70;99.90
29729;DHT22;20055;51.498;11.960;2022-10-30T17:24:31;17.90;99.90
29729;DHT22;20055;51.498;11.960;2022-10-30T17:27:00;17.30;99.90
29729;DHT22;20055;51.498;11.960;2022-10-30T17:29:43;17.80;99.90
29729;DHT22;20055;51.498;11.960;2022-10-30T17:32:21;17.60;99.90
29729;DHT22;20055;51.498;11.960;2022-10-30T17:34:58;17.50;99.90
29729;DHT22;20055;51.498;11.960;2022-10-30T17:37:25;17.70;99.90
29729;DHT22;20055;51.498;11.960;2022-10-30T17:39:52;17.00;99.90
29729;DHT22;20055;51.498;11.960;2022-10-30T17:42:18;16.90;99.90
29729;DHT22;20055;51.498;11.960;2022-10-30T17:44:44;16.90;99.90
29729;DHT22;20055;51.498;11.960;2022-10-30T17:47:17;17.00;99.90
29729;DHT22;20055;51.498;11.960;2022-10-30T17:49:44;17.10;99.90
29729;DHT22;20055;51.498;11.960;2022-10-30T17:52:15;17.00;99.90
29729;DHT22;20055;51.498;11.960;2022-10-30T17:54:42;17.00;99.90
29729;DHT22;20055;51.498;11.960;2022-10-30T17:57:09;17.00;99.90
29729;DHT22;20055;51.498;11.960;2022-10-30T17:59:37;16.70;99.90
29729;DHT22;20055;51.498;11.960;2022-10-30T18:02:14;17.00;99.90
29729;DHT22;20055;51.498;11.960;2022-10-30T18:04:41;16.80;99.90
29729;DHT22;20055;51.498;11.960;2022-10-30T18:07:12;18.10;99.90
29729;DHT22;20055;51.498;11.960;2022-10-30T18:09:38;17.00;99.90
29729;DHT22;20055;51.498;11.960;2022-10-30T18:12:07;16.80;99.90
29729;DHT22;20055;51.498;11.960;2022-10-30T18:14:35;16.20;99.90
29729;DHT22;20055;51.498;11.960;2022-10-30T18:17:01;16.40;99.90
29729;DHT22;20055;51.498;11.960;2022-10-30T18:19:28;16.70;99.90
29729;DHT22;20055;51.498;11.960;2022-10-30T18:21:54;16.20;99.90